Time;durP1;ratioP1;P1;durP2;ratioP2;P2;SDS_P1;SDS_P2;PMS_P1;PMS_P2;Temp;Humidity;BMP_temperature;BMP_pressure;BME280_temperature;BME280_humidity;BME280_pressure;Samples;Min_cycle;Max_cycle;Signal;HPM_P1;HPM_P2
2023/07/04 00:01:24;;;;;;;6.77;2.40;;;16.20;99.90;;;;;;5094149;28;20211;-46
2023/07/04 00:03:53;;;;;;;7.70;2.60;;;16.20;99.90;;;;;;5094414;28;20187;-45
2023/07/04 00:06:20;;;;;;;9.47;2.97;;;16.10;99.90;;;;;;5094313;28;20655;-45
2023/07/04 00:08:46;;;;;;;7.97;2.63;;;16.10;99.90;;;;;;5094023;28;20578;-46
2023/07/04 00:11:12;;;;;;;11.33;2.23;;;16.00;99.90;;;;;;5094274;28;20187;-46
2023/07/04 00:13:38;;;;;;;8.87;2.43;;;16.00;99.90;;;;;;5094214;28;20194;-46
2023/07/04 00:16:13;;;;;;;6.43;2.47;;;15.90;99.90;;;;;;5094102;28;20203;-45
2023/07/04 00:18:40;;;;;;;7.07;2.80;;;15.90;99.90;;;;;;5094151;28;20182;-45
2023/07/04 00:21:11;;;;;;;6.53;2.10;;;15.90;99.90;;;;;;5093743;28;20285;-45
2023/07/04 00:23:38;;;;;;;10.60;2.67;;;15.80;99.90;;;;;;5094210;28;20163;-47
2023/07/04 00:26:07;;;;;;;8.00;2.53;;;15.80;99.90;;;;;;5093311;28;20569;-47
2023/07/04 00:28:33;;;;;;;11.67;2.87;;;15.70;99.90;;;;;;5093749;28;20170;-46
2023/07/04 00:31:02;;;;;;;11.33;2.33;;;15.60;99.90;;;;;;5093984;28;20231;-46
2023/07/04 00:33:30;;;;;;;9.30;2.27;;;15.60;99.90;;;;;;5093636;28;20223;-47
2023/07/04 00:36:04;;;;;;;9.33;2.37;;;15.50;99.90;;;;;;5093883;28;20251;-45
2023/07/04 00:38:34;;;;;;;8.53;2.13;;;15.50;99.90;;;;;;5093689;28;20283;-46
2023/07/04 00:41:06;;;;;;;6.43;2.33;;;15.50;99.90;;;;;;5093459;28;20202;-46
2023/07/04 00:44:36;;;;;;;8.40;2.50;;;15.50;99.90;;;;;;5093469;28;20670;-45
2023/07/04 00:46:52;;;;;;;13.63;3.17;;;15.40;99.90;;;;;;5095655;28;20182;-47
2023/07/04 00:49:26;;;;;;;9.50;3.00;;;15.40;99.90;;;;;;5093572;28;20162;-46
2023/07/04 00:52:06;;;;;;;8.00;2.43;;;15.30;99.90;;;;;;5094178;28;20206;-45
2023/07/04 00:54:40;;;;;;;8.80;2.20;;;15.30;99.90;;;;;;5095075;28;20206;-45
2023/07/04 00:57:07;;;;;;;9.87;2.10;;;15.30;99.90;;;;;;5093966;28;20170;-46
2023/07/04 00:59:37;;;;;;;9.23;2.47;;;15.20;99.90;;;;;;5093940;28;20319;-44
2023/07/04 01:02:03;;;;;;;11.93;2.87;;;15.20;99.90;;;;;;5093585;28;20152;-45
2023/07/04 01:04:31;;;;;;;11.83;2.70;;;15.20;99.90;;;;;;5093582;28;20197;-45
2023/07/04 01:07:10;;;;;;;9.20;2.20;;;15.10;99.90;;;;;;5093501;28;20179;-47
2023/07/04 01:09:38;;;;;;;11.47;2.70;;;15.10;99.90;;;;;;5092407;28;20167;-46
2023/07/04 01:12:04;;;;;;;13.97;2.93;;;15.10;99.90;;;;;;5093284;28;20171;-45
2023/07/04 01:14:30;;;;;;;12.43;2.47;;;15.00;99.90;;;;;;5093242;28;20655;-47
2023/07/04 01:16:56;;;;;;;7.47;2.90;;;15.00;99.90;;;;;;5093476;28;20178;-46
2023/07/04 01:19:35;;;;;;;9.17;2.60;;;15.00;99.90;;;;;;5093306;28;20183;-45
2023/07/04 01:22:19;;;;;;;11.60;2.97;;;14.90;99.90;;;;;;5093672;28;20580;-46
2023/07/04 01:25:20;;;;;;;10.37;3.27;;;14.90;99.90;;;;;;5093405;28;20217;-45
2023/07/04 01:27:48;;;;;;;9.77;2.80;;;14.80;99.90;;;;;;5092987;28;20298;-45
2023/07/04 01:30:16;;;;;;;9.47;2.60;;;14.90;99.90;;;;;;5093356;28;20232;-46
2023/07/04 01:32:43;;;;;;;10.37;2.50;;;14.80;99.90;;;;;;5093118;28;20179;-46
2023/07/04 01:35:12;;;;;;;12.67;3.13;;;14.80;99.90;;;;;;5092994;28;20697;-46
2023/07/04 01:37:38;;;;;;;11.40;2.50;;;14.80;99.90;;;;;;5093276;28;20277;-43
2023/07/04 01:40:08;;;;;;;7.17;2.63;;;14.80;99.90;;;;;;5096404;28;20210;-47
2023/07/04 01:42:36;;;;;;;10.23;2.77;;;14.80;99.90;;;;;;5096913;28;20178;-45
2023/07/04 01:45:04;;;;;;;11.37;2.83;;;14.70;99.90;;;;;;5096750;28;20299;-44
2023/07/04 01:47:31;;;;;;;8.43;3.27;;;14.70;99.90;;;;;;5096631;28;20183;-45
2023/07/04 01:49:57;;;;;;;9.83;2.60;;;14.60;99.90;;;;;;5098294;28;20188;-43
2023/07/04 01:52:23;;;;;;;12.93;3.00;;;14.60;99.90;;;;;;5096967;28;20171;-43
2023/07/04 01:54:49;;;;;;;16.03;3.60;;;14.60;99.90;;;;;;5096906;28;20191;-40
2023/07/04 01:57:15;;;;;;;8.27;2.30;;;14.60;99.90;;;;;;5096683;28;20653;-40
2023/07/04 01:59:40;;;;;;;8.73;2.70;;;14.60;99.90;;;;;;5096575;28;20576;-42
2023/07/04 02:02:06;;;;;;;12.87;2.70;;;14.50;99.90;;;;;;5096436;28;20198;-41
2023/07/04 02:04:31;;;;;;;10.83;3.10;;;14.50;99.90;;;;;;5096607;28;20678;-43
2023/07/04 02:06:57;;;;;;;10.63;3.03;;;14.50;99.90;;;;;;5096464;28;20175;-42
2023/07/04 02:09:24;;;;;;;13.30;3.00;;;14.50;99.90;;;;;;5096461;28;20177;-42
2023/07/04 02:11:50;;;;;;;9.70;3.60;;;14.40;99.90;;;;;;5096532;28;20205;-42
2023/07/04 02:14:16;;;;;;;13.87;2.80;;;14.50;99.90;;;;;;5096188;28;20185;-44
2023/07/04 02:16:43;;;;;;;10.10;2.70;;;14.40;99.90;;;;;;5096135;28;20258;-41
2023/07/04 02:19:08;;;;;;;9.33;2.53;;;14.40;99.90;;;;;;5096374;28;20214;-42
2023/07/04 02:21:34;;;;;;;7.17;2.53;;;14.40;99.90;;;;;;5096314;28;20222;-43
2023/07/04 02:24:04;;;;;;;9.77;2.97;;;14.40;99.90;;;;;;5096039;28;20178;-44
2023/07/04 02:26:32;;;;;;;10.63;2.63;;;14.40;99.90;;;;;;5096205;28;20178;-41
2023/07/04 02:28:58;;;;;;;11.90;2.80;;;14.30;99.90;;;;;;5095999;28;20704;-41
2023/07/04 02:31:24;;;;;;;7.17;2.50;;;14.30;99.90;;;;;;5096533;28;20183;-41
2023/07/04 02:33:50;;;;;;;8.80;2.43;;;14.30;99.90;;;;;;5095850;28;20185;-43
2023/07/04 02:36:17;;;;;;;10.53;3.30;;;14.20;99.90;;;;;;5096009;28;20205;-42
2023/07/04 02:38:42;;;;;;;11.57;2.90;;;14.20;99.90;;;;;;5095800;28;20586;-41
2023/07/04 02:41:09;;;;;;;7.03;2.50;;;14.30;99.90;;;;;;5095646;28;20199;-42
2023/07/04 02:43:35;;;;;;;8.33;2.60;;;14.20;99.90;;;;;;5095689;28;20167;-42
2023/07/04 02:46:05;;;;;;;11.37;3.30;;;14.20;99.90;;;;;;5095621;28;20191;-43
2023/07/04 02:48:32;;;;;;;12.17;3.33;;;14.20;99.90;;;;;;5095958;28;20538;-42
2023/07/04 02:50:58;;;;;;;8.13;2.60;;;14.20;99.90;;;;;;5096571;28;20692;-41
2023/07/04 02:53:24;;;;;;;8.03;2.53;;;14.20;99.90;;;;;;5095457;28;20182;-43
2023/07/04 02:55:51;;;;;;;13.77;3.03;;;14.20;99.90;;;;;;5095443;28;20187;-43
2023/07/04 02:58:17;;;;;;;10.17;3.00;;;14.10;99.90;;;;;;5095428;28;20224;-43
2023/07/04 03:00:44;;;;;;;10.40;2.60;;;14.20;99.90;;;;;;5095265;28;20293;-40
2023/07/04 03:03:10;;;;;;;9.40;3.07;;;14.10;99.90;;;;;;5095479;28;20171;-43
2023/07/04 03:05:36;;;;;;;9.77;2.70;;;14.10;99.90;;;;;;5095189;28;20199;-44
2023/07/04 03:08:05;;;;;;;13.20;2.67;;;14.10;99.90;;;;;;5095153;28;20171;-43
2023/07/04 03:10:31;;;;;;;15.60;3.17;;;14.10;99.90;;;;;;5095190;28;20185;-43
2023/07/04 03:12:57;;;;;;;11.37;2.70;;;14.10;99.90;;;;;;5095188;28;20182;-42
2023/07/04 03:15:23;;;;;;;14.50;2.90;;;14.20;99.90;;;;;;5095043;28;20249;-43
2023/07/04 03:17:49;;;;;;;10.23;2.97;;;14.20;99.90;;;;;;5093744;28;20226;-43
2023/07/04 03:20:15;;;;;;;11.17;3.13;;;14.20;99.90;;;;;;5095045;28;20658;-43
2023/07/04 03:22:43;;;;;;;14.47;3.23;;;14.30;99.90;;;;;;5094943;28;20250;-43
2023/07/04 03:25:10;;;;;;;9.47;3.03;;;14.40;99.90;;;;;;5095765;28;20666;-49
2023/07/04 03:27:37;;;;;;;13.87;3.53;;;14.30;99.90;;;;;;5095567;28;20175;-48
2023/07/04 03:30:05;;;;;;;11.77;2.87;;;14.40;99.90;;;;;;5095385;28;20233;-46
2023/07/04 03:32:31;;;;;;;13.13;2.93;;;14.40;99.90;;;;;;5094780;28;20179;-44
2023/07/04 03:35:00;;;;;;;15.30;3.63;;;14.40;99.90;;;;;;5094794;28;20309;-47
2023/07/04 03:37:31;;;;;;;12.27;3.20;;;14.40;99.90;;;;;;5094695;28;20267;-45
2023/07/04 03:39:57;;;;;;;12.70;2.83;;;14.40;99.90;;;;;;5094571;28;20280;-45
2023/07/04 03:42:24;;;;;;;14.67;2.93;;;14.30;99.90;;;;;;5094946;28;20167;-47
2023/07/04 03:44:50;;;;;;;11.03;2.63;;;14.30;99.90;;;;;;5094804;28;20193;-47
2023/07/04 03:47:15;;;;;;;11.43;2.77;;;14.20;99.90;;;;;;5094548;28;20170;-46
2023/07/04 03:49:41;;;;;;;14.80;3.90;;;14.20;99.90;;;;;;5096197;28;20172;-42
2023/07/04 03:52:07;;;;;;;21.13;3.67;;;14.20;99.90;;;;;;5094753;28;20175;-41
2023/07/04 03:54:33;;;;;;;15.87;3.30;;;14.10;99.90;;;;;;5093031;28;20293;-43
2023/07/04 03:56:59;;;;;;;11.20;2.90;;;14.10;99.90;;;;;;5094304;28;20260;-41
2023/07/04 03:59:24;;;;;;;15.77;3.00;;;14.10;99.90;;;;;;5093111;28;20542;-42
2023/07/04 04:01:50;;;;;;;11.67;3.43;;;14.10;99.90;;;;;;5093311;28;20208;-42
2023/07/04 04:04:15;;;;;;;11.13;2.77;;;14.10;99.90;;;;;;5094400;28;20205;-40
2023/07/04 04:06:41;;;;;;;8.20;2.83;;;14.00;99.90;;;;;;5095054;28;20175;-42
2023/07/04 04:09:07;;;;;;;12.40;3.07;;;14.00;99.90;;;;;;5095042;28;20171;-40
2023/07/04 04:11:32;;;;;;;11.30;3.10;;;14.00;99.90;;;;;;5094837;28;20213;-43
2023/07/04 04:13:58;;;;;;;10.67;3.30;;;14.00;99.90;;;;;;5094658;28;20175;-43
2023/07/04 04:16:24;;;;;;;11.83;2.67;;;14.00;99.90;;;;;;5095266;28;20536;-41
2023/07/04 04:18:51;;;;;;;12.93;3.97;;;14.00;99.90;;;;;;5093926;28;20544;-44
2023/07/04 04:21:17;;;;;;;12.50;3.63;;;14.00;99.90;;;;;;5093898;28;20205;-44
2023/07/04 04:23:43;;;;;;;16.27;4.20;;;14.00;99.90;;;;;;5093880;28;20260;-42
2023/07/04 04:26:09;;;;;;;16.33;3.53;;;14.00;99.90;;;;;;5093820;28;20210;-42
2023/07/04 04:28:34;;;;;;;21.33;4.13;;;14.00;99.90;;;;;;5094402;28;20171;-43
2023/07/04 04:31:00;;;;;;;7.83;2.67;;;14.00;99.90;;;;;;5093615;28;20179;-41
2023/07/04 04:33:25;;;;;;;10.90;3.23;;;14.10;99.90;;;;;;5095206;28;20205;-43
2023/07/04 04:35:51;;;;;;;13.63;2.83;;;14.10;99.90;;;;;;5095116;28;20680;-41
2023/07/04 04:38:17;;;;;;;11.43;3.10;;;14.20;99.90;;;;;;5094750;28;20736;-42
2023/07/04 04:40:43;;;;;;;11.87;3.10;;;14.20;99.90;;;;;;5093745;28;20183;-42
2023/07/04 04:43:09;;;;;;;9.67;3.33;;;14.30;99.90;;;;;;5093939;28;20192;-43
2023/07/04 04:45:35;;;;;;;11.90;3.53;;;14.30;99.90;;;;;;5093551;28;20665;-46
2023/07/04 04:48:01;;;;;;;8.77;3.00;;;14.40;99.90;;;;;;5094295;28;20307;-45
2023/07/04 04:50:30;;;;;;;12.97;3.07;;;14.40;99.90;;;;;;5095056;28;20221;-48
2023/07/04 04:52:58;;;;;;;11.23;3.73;;;14.50;99.90;;;;;;5093797;28;20175;-46
2023/07/04 04:55:24;;;;;;;10.77;2.97;;;14.50;99.90;;;;;;5093423;28;20713;-45
2023/07/04 04:57:50;;;;;;;10.13;2.87;;;14.60;99.90;;;;;;5094013;28;20183;-46
2023/07/04 05:00:16;;;;;;;12.93;3.30;;;14.60;99.90;;;;;;5093232;28;20294;-46
2023/07/04 05:02:44;;;;;;;14.90;3.23;;;14.60;99.90;;;;;;5093672;28;20177;-45
2023/07/04 05:05:12;;;;;;;14.30;3.83;;;14.60;99.90;;;;;;5093679;28;20246;-46
2023/07/04 05:07:38;;;;;;;13.20;3.37;;;14.70;99.90;;;;;;5093638;28;20178;-45
2023/07/04 05:10:05;;;;;;;15.93;3.27;;;14.80;99.90;;;;;;5092418;28;20183;-47
2023/07/04 05:12:31;;;;;;;13.57;3.27;;;14.80;99.90;;;;;;5094368;28;20181;-46
2023/07/04 05:14:56;;;;;;;13.87;3.57;;;14.80;99.90;;;;;;5097483;28;20199;-45
2023/07/04 05:17:23;;;;;;;12.07;3.53;;;14.90;99.90;;;;;;5096052;28;20182;-46
2023/07/04 05:19:49;;;;;;;13.10;3.03;;;14.90;99.90;;;;;;5097299;28;20193;-46
2023/07/04 05:22:19;;;;;;;15.73;3.60;;;15.00;99.90;;;;;;5097591;28;20189;-46
2023/07/04 05:24:45;;;;;;;14.30;3.17;;;15.00;99.90;;;;;;5097195;28;20248;-46
2023/07/04 05:27:11;;;;;;;15.00;3.27;;;15.10;99.90;;;;;;5095958;28;20212;-47
2023/07/04 05:29:36;;;;;;;12.37;3.00;;;15.10;99.90;;;;;;5097167;28;20214;-47
2023/07/04 05:32:02;;;;;;;21.77;3.73;;;15.20;99.90;;;;;;5097070;28;20190;-47
2023/07/04 05:34:28;;;;;;;13.23;3.03;;;15.30;99.90;;;;;;5097484;28;20206;-47
2023/07/04 05:36:54;;;;;;;11.23;2.83;;;15.30;99.90;;;;;;5097544;28;20260;-47
2023/07/04 05:39:20;;;;;;;14.73;3.43;;;15.40;99.90;;;;;;5096928;28;20233;-47
2023/07/04 05:41:45;;;;;;;10.67;3.00;;;15.40;99.90;;;;;;5096859;28;20246;-45
2023/07/04 05:44:11;;;;;;;11.70;2.93;;;15.40;99.90;;;;;;5097054;28;20179;-45
2023/07/04 05:46:37;;;;;;;13.10;3.10;;;15.50;99.90;;;;;;5095595;28;20185;-46
2023/07/04 05:49:04;;;;;;;15.93;3.50;;;15.60;99.90;;;;;;5096763;28;20182;-47
2023/07/04 05:51:30;;;;;;;13.30;3.43;;;15.60;99.90;;;;;;5097364;28;20531;-43
2023/07/04 05:53:56;;;;;;;19.70;3.43;;;15.70;99.90;;;;;;5096902;28;20638;-47
2023/07/04 05:56:27;;;;;;;11.80;3.17;;;15.80;99.90;;;;;;5097336;28;20252;-46
2023/07/04 05:58:58;;;;;;;11.50;3.37;;;15.80;99.90;;;;;;5097248;28;20175;-44
2023/07/04 06:01:35;;;;;;;14.13;3.07;;;15.80;99.90;;;;;;5096780;28;20289;-43
2023/07/04 06:04:02;;;;;;;13.43;3.30;;;15.90;99.90;;;;;;5096552;28;20171;-42
2023/07/04 06:06:37;;;;;;;14.00;2.77;;;15.90;99.90;;;;;;5096866;28;20664;-43
2023/07/04 06:09:06;;;;;;;15.30;2.80;;;16.00;99.90;;;;;;5096763;28;20163;-41
2023/07/04 06:11:34;;;;;;;14.53;3.57;;;16.10;99.90;;;;;;5096649;28;20194;-44
2023/07/04 06:14:03;;;;;;;11.33;3.20;;;16.30;99.90;;;;;;5096564;28;20562;-40
2023/07/04 06:16:29;;;;;;;17.43;3.83;;;16.50;99.90;;;;;;5096336;28;20171;-42
2023/07/04 06:18:55;;;;;;;20.10;4.10;;;16.60;99.90;;;;;;5096172;28;20179;-42
2023/07/04 06:21:23;;;;;;;17.37;3.90;;;16.70;99.90;;;;;;5096029;28;20202;-41
2023/07/04 06:23:50;;;;;;;15.27;3.10;;;16.90;99.90;;;;;;5095913;28;20526;-39
2023/07/04 06:26:16;;;;;;;10.63;3.00;;;17.00;99.90;;;;;;5094964;28;20210;-42
2023/07/04 06:28:42;;;;;;;13.37;3.53;;;17.00;99.90;;;;;;5095481;28;20175;-42
2023/07/04 06:31:12;;;;;;;15.67;2.80;;;17.00;99.90;;;;;;5095893;28;20256;-43
2023/07/04 06:33:38;;;;;;;14.47;3.20;;;16.90;99.90;;;;;;5096258;28;20171;-44
2023/07/04 06:36:07;;;;;;;11.73;3.30;;;16.90;99.90;;;;;;5095763;28;20572;-42
2023/07/04 06:38:33;;;;;;;13.33;4.13;;;16.90;99.90;;;;;;5095811;28;20190;-41
2023/07/04 06:41:02;;;;;;;13.77;3.67;;;16.90;99.90;;;;;;5095942;28;20546;-42
2023/07/04 06:43:30;;;;;;;15.30;3.50;;;16.90;99.90;;;;;;5094434;28;20705;-43
2023/07/04 06:45:56;;;;;;;14.77;3.53;;;17.10;99.90;;;;;;5095672;28;20201;-41
2023/07/04 06:48:23;;;;;;;12.60;4.03;;;17.20;99.90;;;;;;5095699;28;20246;-42
2023/07/04 06:51:03;;;;;;;14.17;3.63;;;17.30;99.90;;;;;;5095430;28;20186;-43
2023/07/04 06:53:30;;;;;;;12.07;3.50;;;17.30;99.90;;;;;;5096177;28;20521;-43
2023/07/04 06:56:11;;;;;;;11.20;3.40;;;17.40;99.90;;;;;;5095420;28;20248;-44
2023/07/04 06:58:40;;;;;;;15.80;3.47;;;17.60;99.90;;;;;;5095828;28;20657;-42
2023/07/04 07:01:06;;;;;;;14.27;3.50;;;17.80;99.90;;;;;;5095630;28;20210;-42
2023/07/04 07:03:32;;;;;;;15.70;3.70;;;17.90;99.90;;;;;;5095310;28;20221;-42
2023/07/04 07:06:02;;;;;;;16.30;3.27;;;18.10;99.90;;;;;;5095192;28;20195;-43
2023/07/04 07:08:28;;;;;;;9.03;3.00;;;18.40;99.90;;;;;;5095212;28;20182;-43
2023/07/04 07:10:56;;;;;;;14.10;3.80;;;18.40;99.90;;;;;;5095176;28;20175;-43
2023/07/04 07:13:21;;;;;;;18.73;3.33;;;18.60;99.90;;;;;;5095377;28;20259;-44
2023/07/04 07:15:47;;;;;;;8.90;3.27;;;18.70;99.90;;;;;;5095588;28;20298;-42
2023/07/04 07:18:13;;;;;;;12.60;3.20;;;18.80;99.90;;;;;;5095905;28;20179;-43
2023/07/04 07:20:38;;;;;;;14.73;3.43;;;19.00;99.90;;;;;;5094871;28;20229;-44
2023/07/04 07:23:04;;;;;;;11.83;3.17;;;19.00;99.90;;;;;;5093676;28;20182;-43
2023/07/04 07:25:29;;;;;;;11.30;2.80;;;19.00;99.90;;;;;;5095095;28;20229;-42
2023/07/04 07:27:55;;;;;;;9.77;2.77;;;18.80;99.90;;;;;;5095075;28;20175;-42
2023/07/04 07:30:20;;;;;;;14.87;3.10;;;18.80;99.90;;;;;;5094820;28;20174;-43
2023/07/04 07:32:46;;;;;;;12.70;3.33;;;19.00;99.90;;;;;;5095288;28;20183;-45
2023/07/04 07:35:12;;;;;;;13.53;3.03;;;19.30;99.90;;;;;;5094593;28;20679;-44
2023/07/04 07:37:37;;;;;;;12.53;3.20;;;19.50;99.90;;;;;;5094859;28;20214;-41
2023/07/04 07:40:04;;;;;;;9.90;3.07;;;19.60;99.90;;;;;;5094483;28;20210;-42
2023/07/04 07:42:32;;;;;;;14.17;3.07;;;19.70;99.90;;;;;;5094573;28;20244;-43
2023/07/04 07:44:58;;;;;;;9.03;2.80;;;19.80;99.90;;;;;;5094421;28;20290;-43
2023/07/04 07:47:24;;;;;;;13.33;3.30;;;19.80;99.90;;;;;;5094503;28;20213;-44
2023/07/04 07:49:50;;;;;;;10.80;2.80;;;20.00;99.90;;;;;;5094406;28;20175;-44
2023/07/04 07:52:15;;;;;;;7.90;2.20;;;20.10;99.90;;;;;;5094645;28;20175;-43
2023/07/04 07:54:41;;;;;;;10.23;2.60;;;20.20;99.90;;;;;;5094286;28;20191;-42
2023/07/04 07:57:06;;;;;;;12.10;2.77;;;20.20;99.90;;;;;;5094274;28;20262;-44
2023/07/04 07:59:32;;;;;;;9.57;2.67;;;20.20;99.90;;;;;;5094278;28;20175;-44
2023/07/04 08:01:58;;;;;;;15.40;2.73;;;20.20;99.90;;;;;;5094139;28;20206;-46
2023/07/04 08:04:25;;;;;;;9.80;2.67;;;20.20;99.90;;;;;;5094100;28;20191;-44
2023/07/04 08:06:50;;;;;;;8.80;2.47;;;20.20;99.90;;;;;;5094117;28;20246;-43
2023/07/04 08:09:17;;;;;;;8.33;2.50;;;20.20;99.90;;;;;;5094325;28;20265;-45
2023/07/04 08:11:45;;;;;;;9.03;2.63;;;20.30;99.90;;;;;;5094049;28;20182;-44
2023/07/04 08:14:13;;;;;;;9.30;2.40;;;20.50;99.90;;;;;;5094244;28;20183;-43
2023/07/04 08:16:45;;;;;;;8.00;2.77;;;20.60;99.90;;;;;;5094255;28;20546;-45
2023/07/04 08:19:12;;;;;;;9.47;2.10;;;20.70;99.90;;;;;;5094141;28;20175;-44
2023/07/04 08:21:37;;;;;;;7.00;1.97;;;20.80;99.90;;;;;;5092575;28;20340;-43
2023/07/04 08:24:10;;;;;;;6.93;2.07;;;20.90;99.90;;;;;;5093760;28;20257;-43
2023/07/04 08:26:36;;;;;;;6.63;1.80;;;21.00;99.90;;;;;;5094118;28;20163;-44
2023/07/04 08:29:02;;;;;;;6.40;2.33;;;21.00;99.90;;;;;;5093778;28;20171;-44
2023/07/04 08:31:28;;;;;;;7.93;2.00;;;21.10;99.90;;;;;;5093697;28;20704;-44
2023/07/04 08:33:54;;;;;;;5.97;2.27;;;21.00;99.90;;;;;;5093927;28;20547;-45
2023/07/04 08:36:20;;;;;;;8.83;2.23;;;20.90;99.90;;;;;;5094119;28;20534;-45
2023/07/04 08:38:48;;;;;;;6.30;2.07;;;20.90;99.90;;;;;;5093495;28;20240;-45
2023/07/04 08:41:43;;;;;;;7.93;2.10;;;20.90;99.90;;;;;;5092641;28;20191;-46
2023/07/04 08:44:21;;;;;;;9.97;2.47;;;21.00;99.90;;;;;;5093778;28;20166;-44
2023/07/04 08:46:55;;;;;;;4.67;1.70;;;21.00;99.90;;;;;;5093238;28;20325;-44
2023/07/04 08:49:38;;;;;;;9.63;2.37;;;21.00;99.90;;;;;;5093453;28;20228;-44
2023/07/04 08:52:10;;;;;;;7.97;2.03;;;21.10;99.90;;;;;;5094084;28;20155;-44
2023/07/04 08:54:36;;;;;;;6.83;1.83;;;21.20;99.90;;;;;;5093694;28;20226;-44
2023/07/04 08:57:13;;;;;;;5.57;1.67;;;21.30;99.90;;;;;;5093732;28;20174;-42
2023/07/04 08:59:40;;;;;;;5.43;1.80;;;21.30;99.90;;;;;;5093880;28;20159;-44
2023/07/04 09:02:39;;;;;;;6.03;1.87;;;21.30;99.90;;;;;;5093640;28;20213;-45
2023/07/04 09:05:23;;;;;;;6.03;1.90;;;21.30;99.90;;;;;;5093556;28;20667;-42
2023/07/04 09:07:56;;;;;;;6.50;2.07;;;21.40;99.90;;;;;;5093673;28;20188;-45
2023/07/04 09:10:46;;;;;;;9.07;2.37;;;21.50;99.90;;;;;;5093470;28;20501;-44
2023/07/04 09:13:32;;;;;;;10.63;2.20;;;21.60;99.90;;;;;;5092934;28;20199;-43
2023/07/04 09:16:04;;;;;;;8.93;2.20;;;21.70;99.90;;;;;;5093838;28;20209;-45
2023/07/04 09:19:09;;;;;;;4.70;1.93;;;21.80;99.90;;;;;;5093366;28;20186;-43
2023/07/04 09:21:39;;;;;;;7.93;2.30;;;21.80;99.90;;;;;;5093458;28;20199;-45
2023/07/04 09:24:05;;;;;;;9.40;2.40;;;21.70;99.90;;;;;;5093422;28;20171;-43
2023/07/04 09:26:56;;;;;;;10.20;2.10;;;21.70;99.90;;;;;;5093657;28;20179;-44
2023/07/04 09:29:24;;;;;;;6.70;2.20;;;21.60;99.90;;;;;;5093453;28;20191;-44
2023/07/04 09:31:58;;;;;;;5.93;2.47;;;21.60;99.90;;;;;;5093141;28;20173;-43
2023/07/04 09:34:49;;;;;;;7.30;2.80;;;21.50;99.90;;;;;;5093309;28;20213;-43
2023/07/04 09:37:17;;;;;;;7.63;2.87;;;21.60;99.90;;;;;;5093065;28;20167;-45
2023/07/04 09:39:52;;;;;;;7.83;2.33;;;21.70;99.90;;;;;;5092704;28;20207;-43
2023/07/04 09:42:20;;;;;;;6.13;2.57;;;21.80;99.90;;;;;;5093308;28;20185;-43
2023/07/04 09:44:48;;;;;;;7.03;2.50;;;21.80;99.90;;;;;;5092959;28;20191;-43
2023/07/04 09:47:26;;;;;;;11.17;2.70;;;21.80;99.90;;;;;;5093192;28;20176;-42
2023/07/04 09:50:11;;;;;;;5.33;2.67;;;21.90;99.90;;;;;;5093134;28;20183;-46
2023/07/04 09:52:38;;;;;;;9.30;3.10;;;22.20;99.90;;;;;;5092956;28;20195;-42
2023/07/04 09:55:16;;;;;;;8.07;3.00;;;22.30;99.90;;;;;;5093225;28;20270;-43
2023/07/04 09:57:44;;;;;;;7.20;2.50;;;22.40;99.90;;;;;;5093202;28;20163;-45
2023/07/04 10:00:17;;;;;;;5.87;2.87;;;22.50;99.90;;;;;;5095093;28;20634;-45
2023/07/04 10:02:43;;;;;;;5.13;2.60;;;22.60;99.90;;;;;;5096699;28;20665;-44
2023/07/04 10:05:11;;;;;;;5.57;2.60;;;22.70;99.90;;;;;;5096803;28;20195;-46
2023/07/04 10:07:37;;;;;;;6.97;2.77;;;22.80;99.90;;;;;;5096759;28;20174;-44
2023/07/04 10:10:06;;;;;;;8.63;2.63;;;22.80;99.90;;;;;;5096422;28;20194;-45
2023/07/04 10:12:40;;;;;;;7.97;2.57;;;22.90;99.90;;;;;;5096336;28;20175;-46
2023/07/04 10:15:06;;;;;;;6.10;2.60;;;22.90;99.90;;;;;;5096290;28;20206;-43
2023/07/04 10:17:35;;;;;;;7.77;2.93;;;23.10;99.90;;;;;;5096643;28;20187;-50
2023/07/04 10:20:05;;;;;;;7.93;2.73;;;23.10;99.90;;;;;;5096120;28;20195;-49
2023/07/04 10:22:35;;;;;;;6.13;3.20;;;23.10;99.90;;;;;;5097309;28;20167;-51
2023/07/04 10:25:02;;;;;;;9.57;2.90;;;23.00;99.90;;;;;;5096219;28;20274;-49
2023/07/04 10:27:39;;;;;;;9.73;2.77;;;23.00;99.90;;;;;;5096183;28;20560;-50
2023/07/04 10:30:18;;;;;;;8.57;2.80;;;23.10;99.90;;;;;;5096547;28;20534;-51
2023/07/04 10:32:48;;;;;;;5.00;2.57;;;23.20;99.90;;;;;;5096369;28;20155;-50
2023/07/04 10:35:20;;;;;;;7.30;3.10;;;23.20;99.90;;;;;;5096436;28;20588;-50
2023/07/04 10:38:10;;;;;;;8.53;3.00;;;23.20;99.90;;;;;;5095900;28;20205;-50
2023/07/04 10:40:39;;;;;;;6.97;3.23;;;23.20;99.90;;;;;;5095227;28;20691;-49
2023/07/04 10:43:14;;;;;;;6.00;2.90;;;23.20;99.90;;;;;;5095778;28;20178;-49
2023/07/04 10:45:43;;;;;;;6.97;3.30;;;23.20;99.90;;;;;;5095753;28;20709;-48
2023/07/04 10:48:14;;;;;;;8.50;3.83;;;23.30;99.90;;;;;;5095643;28;20177;-48
2023/07/04 10:50:50;;;;;;;8.33;3.23;;;23.40;99.90;;;;;;5096296;28;20191;-49
2023/07/04 10:53:18;;;;;;;7.50;3.10;;;23.50;99.90;;;;;;5095831;28;20167;-49
2023/07/04 10:56:00;;;;;;;7.20;3.10;;;23.40;99.90;;;;;;5095438;28;20203;-41
2023/07/04 10:58:33;;;;;;;9.10;3.33;;;23.30;99.90;;;;;;5095798;28;20171;-44
2023/07/04 11:01:06;;;;;;;8.73;3.00;;;23.30;99.90;;;;;;5095416;28;20674;-45
2023/07/04 11:03:45;;;;;;;6.13;3.20;;;23.30;99.90;;;;;;5095674;28;20159;-43
2023/07/04 11:06:16;;;;;;;10.03;2.93;;;23.40;99.90;;;;;;5095853;28;20187;-45
2023/07/04 11:08:43;;;;;;;8.60;3.20;;;23.50;99.90;;;;;;5095628;28;20167;-44
2023/07/04 11:11:11;;;;;;;6.30;3.20;;;23.60;99.90;;;;;;5094949;28;20198;-44
2023/07/04 11:13:47;;;;;;;11.30;3.93;;;23.60;99.90;;;;;;5095157;28;20194;-44
2023/07/04 11:16:12;;;;;;;9.37;3.63;;;23.80;99.90;;;;;;5095093;28;20268;-45
2023/07/04 11:18:43;;;;;;;12.70;3.40;;;23.80;99.90;;;;;;5093787;28;20647;-44
2023/07/04 11:21:13;;;;;;;7.60;3.63;;;23.90;99.90;;;;;;5094793;28;20190;-44
2023/07/04 11:24:07;;;;;;;9.90;3.40;;;23.90;99.90;;;;;;5095178;28;20163;-45
2023/07/04 11:27:00;;;;;;;8.67;3.20;;;23.90;99.90;;;;;;5094898;28;20591;-43
2023/07/04 11:29:44;;;;;;;7.27;3.30;;;23.80;99.90;;;;;;5094529;28;20559;-44
2023/07/04 11:32:11;;;;;;;7.60;3.63;;;23.70;99.90;;;;;;5094694;28;20171;-45
2023/07/04 11:35:15;;;;;;;7.23;3.40;;;23.70;99.90;;;;;;5094568;28;20194;-44
2023/07/04 11:37:43;;;;;;;11.13;3.77;;;23.80;99.90;;;;;;5094976;28;20611;-45
2023/07/04 11:40:26;;;;;;;7.97;3.70;;;23.90;99.90;;;;;;5093053;28;20683;-45
2023/07/04 11:42:55;;;;;;;8.63;3.70;;;23.90;99.90;;;;;;5095089;28;20159;-44
2023/07/04 11:45:22;;;;;;;7.27;3.50;;;23.90;99.90;;;;;;5094636;28;20571;-45
2023/07/04 11:47:59;;;;;;;9.40;3.93;;;24.10;99.90;;;;;;5094491;28;20181;-44
2023/07/04 11:50:48;;;;;;;7.97;3.10;;;24.20;99.90;;;;;;5095021;28;20189;-43
2023/07/04 11:53:19;;;;;;;6.40;3.70;;;24.20;99.90;;;;;;5094410;28;20167;-43
2023/07/04 11:56:03;;;;;;;9.43;4.00;;;24.30;99.90;;;;;;5094293;28;20224;-44
2023/07/04 11:58:28;;;;;;;10.57;3.67;;;24.40;99.90;;;;;;5092887;28;20175;-44
2023/07/04 12:01:03;;;;;;;8.23;4.13;;;24.60;99.90;;;;;;5094388;28;20202;-45
2023/07/04 12:03:28;;;;;;;6.47;3.83;;;24.70;99.90;;;;;;5094076;28;20311;-44
2023/07/04 12:05:57;;;;;;;9.80;4.10;;;24.80;99.90;;;;;;5094040;28;20726;-44
2023/07/04 12:08:39;;;;;;;9.13;3.77;;;24.80;99.90;;;;;;5094100;28;20259;-44
2023/07/04 12:11:08;;;;;;;4.93;3.30;;;24.80;99.90;;;;;;5094317;28;20194;-44
2023/07/04 12:13:36;;;;;;;6.20;3.60;;;25.00;99.90;;;;;;5094616;28;20230;-44
2023/07/04 12:16:05;;;;;;;9.33;4.03;;;25.10;99.90;;;;;;5093923;28;20195;-45
2023/07/04 12:18:39;;;;;;;8.82;4.10;;;25.20;99.90;;;;;;5093912;28;20550;-45
2023/07/04 12:21:07;;;;;;;9.57;3.90;;;25.20;99.90;;;;;;5093882;28;20279;-45
2023/07/04 12:23:35;;;;;;;6.53;3.40;;;25.20;99.90;;;;;;5093273;28;20167;-44
2023/07/04 12:26:00;;;;;;;9.35;4.00;;;25.10;99.90;;;;;;5093687;28;20195;-44
2023/07/04 12:28:28;;;;;;;10.30;4.20;;;25.00;99.90;;;;;;5093745;28;20171;-43
2023/07/04 12:30:58;;;;;;;10.70;4.43;;;24.90;99.90;;;;;;5093758;28;20183;-43
2023/07/04 12:33:29;;;;;;;8.65;4.07;;;24.90;99.90;;;;;;5093719;28;20202;-44
2023/07/04 12:35:59;;;;;;;9.15;4.28;;;24.90;99.90;;;;;;5093717;28;20697;-44
2023/07/04 12:38:28;;;;;;;9.43;4.22;;;25.00;99.90;;;;;;5093694;28;20252;-44
2023/07/04 12:40:56;;;;;;;8.40;4.03;;;24.90;99.90;;;;;;5093519;28;20289;-45
2023/07/04 12:43:30;;;;;;;6.63;3.67;;;25.00;99.90;;;;;;5093748;28;20298;-46
2023/07/04 12:46:15;;;;;;;13.03;4.17;;;24.90;99.90;;;;;;5093841;28;20203;-45
2023/07/04 12:48:42;;;;;;;8.20;4.47;;;24.90;99.90;;;;;;5093704;28;20166;-44
2023/07/04 12:51:13;;;;;;;9.68;4.15;;;25.10;99.90;;;;;;5093458;28;20261;-45
2023/07/04 12:53:40;;;;;;;11.02;3.92;;;25.20;99.90;;;;;;5093895;28;20595;-45